Time;durP1;ratioP1;P1;durP2;ratioP2;P2;SDS_P1;SDS_P2;PMS_P1;PMS_P2;Temp;Humidity;BMP_temperature;BMP_pressure;BME280_temperature;BME280_humidity;BME280_pressure;Samples;Min_cycle;Max_cycle;Signal;HPM_P1;HPM_P2
2023/09/15 00:00:46;;;;;;;0.22;0.13;;;9.10;99.90;;;;;;5122889;27;20035;-73
2023/09/15 00:03:12;;;;;;;0.38;0.25;;;9.10;99.90;;;;;;5119666;27;20520;-74
2023/09/15 00:05:38;;;;;;;0.00;0.00;;;9.10;99.90;;;;;;5118980;27;20051;-74
2023/09/15 00:08:05;;;;;;;0.28;0.28;;;9.40;99.90;;;;;;5132485;27;20118;-73
2023/09/15 00:10:33;;;;;;;0.00;0.00;;;9.00;99.90;;;;;;5122835;27;20370;-73
2023/09/15 00:12:59;;;;;;;0.22;0.22;;;9.10;99.90;;;;;;5130207;27;20078;-73
2023/09/15 00:15:25;;;;;;;0.10;0.10;;;9.00;99.90;;;;;;5119958;27;20035;-73
2023/09/15 00:17:51;;;;;;;0.00;0.00;;;9.00;99.90;;;;;;5135354;27;20131;-73
2023/09/15 00:20:17;;;;;;;0.10;0.10;;;9.00;99.90;;;;;;5122348;27;20080;-73
2023/09/15 00:22:50;;;;;;;0.20;0.20;;;9.00;99.90;;;;;;5116958;27;20031;-73
2023/09/15 00:25:19;;;;;;;3.13;1.30;;;9.00;99.90;;;;;;5126675;27;20031;-73
2023/09/15 00:27:56;;;;;;;0.00;0.00;;;9.00;99.90;;;;;;5126676;27;20050;-73
2023/09/15 00:30:23;;;;;;;1.65;0.90;;;8.90;99.90;;;;;;5123515;28;20095;-73
2023/09/15 00:32:50;;;;;;;0.05;0.05;;;9.10;99.90;;;;;;5122867;27;20040;-73
2023/09/15 00:35:16;;;;;;;0.00;0.00;;;9.00;99.90;;;;;;5123536;27;20100;-75
2023/09/15 00:37:43;;;;;;;3.55;1.55;;;8.90;99.90;;;;;;5118584;28;20041;-73
2023/09/15 00:40:10;;;;;;;0.30;0.30;;;8.90;99.90;;;;;;5126616;27;20118;-73
2023/09/15 00:42:37;;;;;;;0.15;0.13;;;8.90;99.90;;;;;;5105598;27;20032;-74
2023/09/15 00:45:05;;;;;;;0.10;0.10;;;9.00;99.90;;;;;;5130670;27;20047;-72
2023/09/15 00:47:35;;;;;;;0.00;0.00;;;9.10;99.90;;;;;;5129740;27;20047;-73
2023/09/15 00:50:08;;;;;;;0.00;0.00;;;9.10;99.90;;;;;;5110759;28;20091;-74
2023/09/15 00:52:34;;;;;;;2.40;0.57;;;9.10;99.90;;;;;;5134097;27;20377;-73
2023/09/15 00:55:00;;;;;;;0.00;0.00;;;9.10;99.90;;;;;;5126640;27;20054;-73
2023/09/15 00:57:27;;;;;;;1.02;0.65;;;9.00;99.90;;;;;;5126840;27;20043;-74
2023/09/15 00:59:53;;;;;;;0.00;0.00;;;8.90;99.90;;;;;;5122233;27;20081;-74
2023/09/15 01:02:20;;;;;;;13.57;1.27;;;8.90;99.90;;;;;;5133526;27;20036;-73
2023/09/15 01:04:46;;;;;;;1.17;0.93;;;8.90;99.90;;;;;;5127542;27;20107;-74
2023/09/15 01:07:13;;;;;;;0.35;0.35;;;8.80;99.90;;;;;;5126244;27;20067;-73
2023/09/15 01:09:41;;;;;;;0.00;0.00;;;8.80;99.90;;;;;;5126619;27;20050;-73
2023/09/15 01:12:08;;;;;;;0.10;0.10;;;8.60;99.90;;;;;;5128709;27;20039;-74
2023/09/15 01:14:35;;;;;;;0.00;0.00;;;8.60;99.90;;;;;;5130133;27;20067;-72
2023/09/15 01:17:12;;;;;;;0.00;0.00;;;8.50;99.90;;;;;;5128825;27;20047;-73
2023/09/15 01:19:41;;;;;;;0.13;0.13;;;8.70;99.90;;;;;;5123516;27;20042;-73
2023/09/15 01:22:36;;;;;;;0.00;0.00;;;8.60;99.90;;;;;;5119509;27;20063;-73
2023/09/15 01:25:42;;;;;;;0.13;0.13;;;8.60;99.90;;;;;;5126887;27;20047;-73
2023/09/15 01:28:37;;;;;;;0.00;0.00;;;8.60;99.90;;;;;;5127336;27;20122;-73
2023/09/15 01:31:03;;;;;;;0.13;0.13;;;8.50;99.90;;;;;;5130002;27;20039;-73
2023/09/15 01:33:30;;;;;;;0.63;0.40;;;8.40;99.90;;;;;;5126253;27;20039;-73
2023/09/15 01:35:55;;;;;;;0.00;0.00;;;8.30;99.90;;;;;;5124395;27;20385;-73
2023/09/15 01:38:22;;;;;;;0.00;0.00;;;8.40;99.90;;;;;;5128658;27;20046;-73
2023/09/15 01:40:47;;;;;;;0.20;0.10;;;8.30;99.90;;;;;;5126520;27;20059;-73
2023/09/15 01:43:13;;;;;;;0.00;0.00;;;8.30;99.90;;;;;;5126157;27;20481;-73
2023/09/15 01:45:39;;;;;;;0.00;0.00;;;8.20;99.90;;;;;;5129099;27;20043;-73
2023/09/15 01:48:05;;;;;;;1.08;0.43;;;8.20;99.90;;;;;;5129892;27;20043;-73
2023/09/15 01:50:32;;;;;;;0.05;0.05;;;8.10;99.90;;;;;;5122970;27;20085;-73
2023/09/15 01:52:58;;;;;;;0.00;0.00;;;8.10;99.90;;;;;;5137751;27;20055;-73
2023/09/15 01:55:26;;;;;;;0.22;0.10;;;8.00;99.90;;;;;;5121947;27;20047;-73
2023/09/15 01:57:53;;;;;;;0.20;0.20;;;8.10;99.90;;;;;;5125816;27;20048;-73
2023/09/15 02:00:18;;;;;;;0.00;0.00;;;8.10;99.90;;;;;;5117915;27;20043;-74
2023/09/15 02:02:44;;;;;;;0.10;0.10;;;8.20;99.90;;;;;;5127284;27;20400;-73
2023/09/15 02:05:19;;;;;;;0.00;0.00;;;8.00;99.90;;;;;;5129612;27;20193;-72
2023/09/15 02:07:44;;;;;;;0.00;0.00;;;7.90;99.90;;;;;;5120663;27;20040;-73
2023/09/15 02:10:10;;;;;;;0.43;0.40;;;7.80;99.90;;;;;;5124647;27;20446;-73
2023/09/15 02:12:36;;;;;;;0.38;0.20;;;7.70;99.90;;;;;;5126203;27;20065;-73
2023/09/15 02:15:01;;;;;;;0.43;0.40;;;7.90;99.90;;;;;;5128186;27;20040;-73
2023/09/15 02:17:27;;;;;;;0.00;0.00;;;7.90;99.90;;;;;;5124952;27;20062;-73
2023/09/15 02:19:53;;;;;;;0.00;0.00;;;7.80;99.90;;;;;;5132269;27;20385;-74
2023/09/15 02:22:18;;;;;;;0.20;0.20;;;7.80;99.90;;;;;;5129474;27;20098;-73
2023/09/15 02:24:44;;;;;;;0.32;0.22;;;7.80;99.90;;;;;;5129139;27;20031;-73
2023/09/15 02:27:10;;;;;;;2.30;0.63;;;7.80;99.90;;;;;;5126532;27;20039;-73
2023/09/15 02:29:36;;;;;;;0.00;0.00;;;7.80;99.90;;;;;;5119819;27;20035;-73
2023/09/15 02:32:01;;;;;;;0.00;0.00;;;7.80;99.90;;;;;;5129445;27;20409;-73
2023/09/15 02:34:27;;;;;;;0.00;0.00;;;7.80;99.90;;;;;;5129084;27;20066;-73
2023/09/15 02:36:52;;;;;;;0.30;0.22;;;7.70;99.90;;;;;;5122824;27;20039;-73
2023/09/15 02:39:18;;;;;;;0.30;0.20;;;7.60;99.90;;;;;;5129875;27;20032;-73
2023/09/15 02:41:43;;;;;;;0.00;0.00;;;7.60;99.90;;;;;;5129365;27;20524;-72
2023/09/15 02:44:09;;;;;;;0.00;0.00;;;7.60;99.90;;;;;;5128541;27;20051;-74
2023/09/15 02:46:35;;;;;;;0.17;0.10;;;7.60;99.90;;;;;;5128873;27;20036;-73
2023/09/15 02:49:01;;;;;;;0.38;0.32;;;7.70;99.90;;;;;;5127600;27;20054;-74
2023/09/15 02:51:27;;;;;;;0.30;0.30;;;7.60;99.90;;;;;;5114971;28;20052;-74
2023/09/15 02:53:52;;;;;;;0.15;0.15;;;7.60;99.90;;;;;;5125351;27;20062;-74
2023/09/15 02:56:18;;;;;;;0.00;0.00;;;7.50;99.90;;;;;;5124945;27;20044;-74
2023/09/15 02:58:44;;;;;;;0.00;0.00;;;7.50;99.90;;;;;;5124284;27;20043;-74
2023/09/15 03:01:13;;;;;;;0.00;0.00;;;7.30;99.90;;;;;;5124935;27;20525;-74
2023/09/15 03:03:39;;;;;;;0.00;0.00;;;7.40;99.90;;;;;;5125116;27;20035;-73
2023/09/15 03:06:06;;;;;;;0.00;0.00;;;7.40;99.90;;;;;;5115792;27;20046;-74
2023/09/15 03:08:33;;;;;;;0.65;0.52;;;7.40;99.90;;;;;;5120589;27;20065;-76
2023/09/15 03:10:59;;;;;;;0.00;0.00;;;7.30;99.90;;;;;;5117990;27;20066;-74
2023/09/15 03:13:25;;;;;;;1.25;0.55;;;7.40;99.90;;;;;;5122765;27;20551;-74
2023/09/15 03:15:51;;;;;;;0.80;0.43;;;7.40;99.90;;;;;;5124327;27;20031;-74
2023/09/15 03:18:17;;;;;;;0.20;0.20;;;7.50;99.90;;;;;;5120382;27;20074;-74
2023/09/15 03:20:43;;;;;;;0.00;0.00;;;7.50;99.90;;;;;;5121339;27;20086;-74
2023/09/15 03:23:08;;;;;;;0.00;0.00;;;7.40;99.90;;;;;;5126148;27;20035;-75
2023/09/15 03:25:34;;;;;;;0.10;0.10;;;7.30;99.90;;;;;;5127638;27;20122;-74
2023/09/15 03:28:00;;;;;;;0.10;0.10;;;7.30;99.90;;;;;;5122158;27;20535;-74
2023/09/15 03:30:25;;;;;;;0.00;0.00;;;7.30;99.90;;;;;;5124291;27;20519;-74
2023/09/15 03:32:51;;;;;;;0.13;0.13;;;7.30;99.90;;;;;;5124851;27;20040;-74
2023/09/15 03:35:16;;;;;;;1.02;0.43;;;7.20;99.90;;;;;;5124694;27;20036;-74
2023/09/15 03:37:42;;;;;;;0.40;0.40;;;7.20;99.90;;;;;;5123554;27;20468;-74
2023/09/15 03:40:11;;;;;;;0.00;0.00;;;7.20;99.90;;;;;;5131940;27;20046;-73
2023/09/15 03:42:38;;;;;;;0.03;0.03;;;7.30;99.90;;;;;;5118699;27;20063;-74
2023/09/15 03:45:08;;;;;;;1.23;0.05;;;7.30;99.90;;;;;;5136400;27;20043;-74
2023/09/15 03:47:34;;;;;;;0.00;0.00;;;7.30;99.90;;;;;;5124162;27;20082;-74
2023/09/15 03:50:02;;;;;;;3.95;0.55;;;7.30;99.90;;;;;;5124339;27;20066;-74
2023/09/15 03:52:28;;;;;;;0.00;0.00;;;7.30;99.90;;;;;;5123853;27;20083;-74
2023/09/15 03:55:00;;;;;;;1.38;1.27;;;7.30;99.90;;;;;;5127580;27;20050;-74
2023/09/15 03:57:27;;;;;;;0.00;0.00;;;7.30;99.90;;;;;;5111877;27;20332;-74
2023/09/15 03:59:53;;;;;;;0.03;0.03;;;7.30;99.90;;;;;;5124537;27;20130;-74
2023/09/15 04:02:18;;;;;;;0.13;0.10;;;7.20;99.90;;;;;;5127664;27;20122;-74
2023/09/15 04:04:44;;;;;;;0.05;0.05;;;7.20;99.90;;;;;;5126770;27;20117;-74
2023/09/15 04:07:09;;;;;;;0.00;0.00;;;7.20;99.90;;;;;;5120429;27;20035;-74
2023/09/15 04:09:35;;;;;;;0.15;0.15;;;7.10;99.90;;;;;;5127100;27;20492;-74
2023/09/15 04:12:01;;;;;;;0.22;0.22;;;7.10;99.90;;;;;;5127039;27;20096;-74
2023/09/15 04:14:28;;;;;;;2.63;0.60;;;7.00;99.90;;;;;;5121581;27;20485;-74
2023/09/15 04:16:54;;;;;;;0.10;0.10;;;7.00;99.90;;;;;;5122957;27;20548;-74
2023/09/15 04:19:19;;;;;;;0.08;0.08;;;6.90;99.90;;;;;;5114266;27;20067;-74
2023/09/15 04:21:45;;;;;;;0.10;0.10;;;7.00;99.90;;;;;;5119920;27;20397;-74
2023/09/15 04:24:10;;;;;;;0.00;0.00;;;7.00;99.90;;;;;;5124713;27;20047;-74
2023/09/15 04:26:36;;;;;;;0.43;0.35;;;7.20;99.90;;;;;;5126057;27;20042;-74
2023/09/15 04:29:02;;;;;;;0.00;0.00;;;7.20;99.90;;;;;;5127425;27;20047;-74
2023/09/15 04:31:27;;;;;;;0.20;0.20;;;7.20;99.90;;;;;;5125905;27;20054;-74
2023/09/15 04:33:53;;;;;;;0.05;0.05;;;7.10;99.90;;;;;;5126422;27;20039;-74
2023/09/15 04:36:19;;;;;;;0.38;0.38;;;7.10;99.90;;;;;;5125315;27;20068;-74
2023/09/15 04:38:45;;;;;;;1.00;0.73;;;7.10;99.90;;;;;;5127621;28;20095;-74
2023/09/15 04:41:10;;;;;;;0.80;0.52;;;7.10;99.90;;;;;;5126484;28;20044;-74
2023/09/15 04:43:36;;;;;;;0.65;0.65;;;7.10;99.90;;;;;;5126367;28;20047;-73
2023/09/15 04:46:01;;;;;;;0.00;0.00;;;7.10;99.90;;;;;;5119428;28;20039;-74
2023/09/15 04:48:27;;;;;;;0.00;0.00;;;7.10;99.90;;;;;;5126126;28;20039;-74
2023/09/15 04:50:52;;;;;;;0.10;0.10;;;7.10;99.90;;;;;;5131289;28;20044;-74
2023/09/15 04:53:20;;;;;;;0.22;0.22;;;7.10;99.90;;;;;;5122942;28;20059;-74
2023/09/15 04:55:48;;;;;;;0.00;0.00;;;7.00;99.90;;;;;;5130754;28;20412;-74
2023/09/15 04:58:13;;;;;;;1.10;0.70;;;7.10;99.90;;;;;;5122856;28;20050;-74
2023/09/15 05:00:40;;;;;;;0.10;0.10;;;7.00;99.90;;;;;;5131659;27;20126;-74
2023/09/15 05:03:08;;;;;;;0.00;0.00;;;7.10;99.90;;;;;;5120567;28;20509;-74
2023/09/15 05:05:33;;;;;;;0.00;0.00;;;7.10;99.90;;;;;;5125801;27;20058;-73
2023/09/15 05:07:59;;;;;;;0.52;0.52;;;7.00;99.90;;;;;;5123793;28;20484;-74
2023/09/15 05:10:25;;;;;;;0.05;0.05;;;7.00;99.90;;;;;;5124655;27;20035;-74
2023/09/15 05:12:50;;;;;;;0.00;0.00;;;7.10;99.90;;;;;;5126042;28;20511;-74
2023/09/15 05:15:16;;;;;;;0.13;0.13;;;7.00;99.90;;;;;;5114606;28;20050;-74
2023/09/15 05:17:44;;;;;;;1.45;0.80;;;7.10;99.90;;;;;;5129857;28;20488;-74
2023/09/15 05:20:10;;;;;;;0.00;0.00;;;7.10;99.90;;;;;;5119985;27;20043;-74
2023/09/15 05:22:36;;;;;;;0.00;0.00;;;7.00;99.90;;;;;;5122678;27;20084;-73
2023/09/15 05:25:04;;;;;;;0.20;0.17;;;7.00;99.90;;;;;;5122820;28;20507;-73
2023/09/15 05:27:30;;;;;;;0.05;0.05;;;7.00;99.90;;;;;;5126244;27;20050;-73
2023/09/15 05:29:56;;;;;;;0.00;0.00;;;7.10;99.90;;;;;;5130370;27;20125;-76
2023/09/15 05:32:22;;;;;;;0.15;0.15;;;7.10;99.90;;;;;;5132428;27;20075;-74
2023/09/15 05:34:47;;;;;;;0.30;0.30;;;7.20;99.90;;;;;;5126699;27;20537;-73
2023/09/15 05:37:15;;;;;;;0.00;0.00;;;7.20;99.90;;;;;;5126169;27;20039;-74
2023/09/15 05:39:40;;;;;;;0.63;0.50;;;7.10;99.90;;;;;;5127724;27;20043;-74
2023/09/15 05:42:06;;;;;;;0.03;0.03;;;7.20;99.90;;;;;;5125771;27;20048;-74
2023/09/15 05:44:31;;;;;;;0.00;0.00;;;7.20;99.90;;;;;;5127719;27;20078;-73
2023/09/15 05:46:59;;;;;;;0.52;0.52;;;7.30;99.90;;;;;;5128355;27;20441;-73
2023/09/15 05:49:24;;;;;;;0.10;0.10;;;7.40;99.90;;;;;;5129323;27;20126;-74
2023/09/15 05:51:50;;;;;;;0.20;0.20;;;7.60;99.90;;;;;;5112578;27;20134;-74
2023/09/15 05:54:16;;;;;;;0.32;0.20;;;7.50;99.90;;;;;;5127836;27;20045;-74
2023/09/15 05:56:41;;;;;;;0.00;0.00;;;7.60;99.90;;;;;;5126677;27;20038;-74
2023/09/15 05:59:07;;;;;;;0.30;0.30;;;7.70;99.90;;;;;;5124579;27;20039;-74
2023/09/15 06:01:32;;;;;;;1.25;0.85;;;7.80;99.90;;;;;;5115154;27;20544;-74
2023/09/15 06:03:59;;;;;;;0.60;0.50;;;7.90;99.90;;;;;;5124753;27;20035;-74
2023/09/15 06:06:25;;;;;;;0.10;0.10;;;8.00;99.90;;;;;;5124400;27;20079;-74
2023/09/15 06:08:51;;;;;;;0.55;0.55;;;8.10;99.90;;;;;;5125211;27;20055;-74
2023/09/15 06:11:16;;;;;;;0.68;0.68;;;8.20;99.90;;;;;;5128988;27;20047;-74
2023/09/15 06:13:42;;;;;;;0.57;0.57;;;8.70;99.90;;;;;;5123252;27;20035;-74
2023/09/15 06:16:08;;;;;;;1.58;0.68;;;9.20;99.90;;;;;;5120106;27;20142;-74
2023/09/15 06:18:34;;;;;;;0.85;0.70;;;9.60;99.90;;;;;;5126612;27;20476;-74
2023/09/15 06:20:59;;;;;;;0.50;0.50;;;9.90;99.90;;;;;;5126694;27;20068;-74
2023/09/15 06:23:25;;;;;;;0.55;0.55;;;10.20;99.90;;;;;;5123563;27;20065;-74
2023/09/15 06:25:54;;;;;;;0.60;0.55;;;10.20;99.90;;;;;;5123992;27;20055;-74
2023/09/15 06:28:19;;;;;;;2.55;1.50;;;10.50;99.90;;;;;;5125212;27;20047;-74
2023/09/15 06:30:45;;;;;;;0.50;0.45;;;10.90;99.90;;;;;;5126973;27;20382;-74
2023/09/15 06:33:11;;;;;;;0.30;0.30;;;11.10;99.90;;;;;;5126861;27;20104;-74
2023/09/15 06:35:37;;;;;;;0.70;0.70;;;10.90;99.90;;;;;;5123983;27;20036;-74
2023/09/15 06:38:04;;;;;;;1.40;0.90;;;10.70;99.90;;;;;;5122973;27;20039;-74
2023/09/15 06:40:29;;;;;;;1.08;0.63;;;10.40;99.90;;;;;;5124295;27;20458;-74
2023/09/15 06:42:55;;;;;;;1.98;0.90;;;10.30;99.90;;;;;;5126558;27;20070;-74
2023/09/15 06:45:20;;;;;;;1.05;0.63;;;10.20;99.90;;;;;;5126558;27;20039;-74
2023/09/15 06:47:46;;;;;;;0.00;0.00;;;10.20;99.90;;;;;;5122993;27;20497;-74
2023/09/15 06:50:12;;;;;;;0.15;0.15;;;10.20;99.90;;;;;;5123575;27;20050;-74
2023/09/15 06:52:37;;;;;;;1.55;0.40;;;10.30;99.90;;;;;;5124716;27;20070;-74
2023/09/15 06:55:03;;;;;;;0.95;0.93;;;10.40;99.90;;;;;;5126782;27;20035;-74
2023/09/15 06:57:29;;;;;;;0.20;0.15;;;10.50;99.90;;;;;;5124139;27;20067;-74
2023/09/15 06:59:55;;;;;;;0.43;0.43;;;10.50;99.90;;;;;;5119474;27;20114;-74
2023/09/15 07:02:21;;;;;;;0.32;0.32;;;10.60;99.90;;;;;;5121448;27;20079;-74
2023/09/15 07:04:47;;;;;;;0.32;0.32;;;10.70;99.90;;;;;;5121318;27;20066;-74
2023/09/15 07:07:12;;;;;;;7.28;2.35;;;10.80;99.90;;;;;;5123155;27;20043;-75
2023/09/15 07:09:38;;;;;;;0.55;0.22;;;10.90;99.90;;;;;;5123773;27;20042;-75
2023/09/15 07:12:04;;;;;;;0.43;0.20;;;11.00;99.90;;;;;;5118657;27;20103;-75
2023/09/15 07:14:30;;;;;;;0.00;0.00;;;11.20;1.00;;;;;;5110353;27;20035;-75
2023/09/15 07:16:55;;;;;;;0.38;0.25;;;11.50;99.90;;;;;;5121977;27;20043;-75
2023/09/15 07:19:21;;;;;;;0.50;0.28;;;11.40;99.90;;;;;;5117248;27;20047;-75
2023/09/15 07:21:47;;;;;;;2.58;1.08;;;11.50;99.90;;;;;;5119524;27;20389;-75
2023/09/15 07:24:12;;;;;;;0.25;0.15;;;11.60;99.90;;;;;;5121466;27;20118;-75
2023/09/15 07:26:38;;;;;;;0.30;0.30;;;11.60;99.90;;;;;;5117584;27;20045;-75
2023/09/15 07:29:04;;;;;;;0.35;0.35;;;11.90;99.90;;;;;;5109619;27;20324;-75
2023/09/15 07:31:35;;;;;;;1.02;0.68;;;12.00;1.00;;;;;;5112084;27;20134;-75
2023/09/15 07:34:00;;;;;;;0.65;0.63;;;12.10;1.00;;;;;;5106436;27;20040;-75
2023/09/15 07:36:26;;;;;;;0.30;0.30;;;12.20;99.90;;;;;;5111711;27;20551;-75
2023/09/15 07:38:52;;;;;;;1.98;0.65;;;12.30;1.00;;;;;;5119104;27;20039;-75
2023/09/15 07:41:19;;;;;;;0.20;0.15;;;12.40;99.90;;;;;;5119436;27;20079;-75
2023/09/15 07:43:45;;;;;;;0.85;0.10;;;12.50;99.90;;;;;;5122255;27;20378;-75
2023/09/15 07:46:13;;;;;;;0.10;0.10;;;12.70;1.00;;;;;;5122958;27;20051;-75
2023/09/15 07:48:39;;;;;;;1.25;0.70;;;12.80;1.00;;;;;;5119602;27;20458;-75
2023/09/15 07:51:05;;;;;;;1.75;1.02;;;12.90;99.90;;;;;;5118467;27;20102;-75
2023/09/15 07:53:31;;;;;;;0.00;0.00;;;13.00;99.90;;;;;;5117176;27;20540;-75
2023/09/15 07:55:56;;;;;;;1.52;0.85;;;13.10;1.00;;;;;;5118955;27;20046;-75
2023/09/15 07:58:23;;;;;;;1.15;0.93;;;13.20;99.90;;;;;;5122853;27;20531;-75
2023/09/15 08:00:48;;;;;;;0.00;0.00;;;13.40;99.90;;;;;;5120285;27;20043;-75
2023/09/15 08:03:14;;;;;;;0.40;0.30;;;13.60;99.90;;;;;;5119132;27;20101;-75
2023/09/15 08:05:40;;;;;;;0.00;0.00;;;13.80;1.00;;;;;;5119233;27;20044;-75
2023/09/15 08:08:06;;;;;;;0.60;0.43;;;13.80;99.90;;;;;;5121222;27;20043;-75
2023/09/15 08:10:32;;;;;;;0.22;0.20;;;14.00;99.90;;;;;;5122011;27;20043;-74
2023/09/15 08:12:57;;;;;;;0.98;0.73;;;14.10;43.00;;;;;;5120657;27;20035;-74
2023/09/15 08:15:23;;;;;;;0.20;0.20;;;14.20;99.90;;;;;;5107588;27;20092;-74
2023/09/15 08:17:49;;;;;;;0.95;0.82;;;14.30;32.00;;;;;;5102897;27;20040;-73
2023/09/15 08:20:15;;;;;;;0.75;0.30;;;14.50;99.90;;;;;;5109640;27;20380;-72
2023/09/15 08:22:42;;;;;;;0.13;0.13;;;14.50;99.90;;;;;;5114937;27;20035;-72
2023/09/15 08:25:10;;;;;;;0.08;0.08;;;14.70;99.90;;;;;;5119890;27;20080;-72
2023/09/15 08:27:39;;;;;;;0.08;0.00;;;14.90;99.90;;;;;;5119766;27;20404;-72
2023/09/15 08:30:08;;;;;;;0.57;0.20;;;15.40;1.00;;;;;;5121834;27;20450;-72
2023/09/15 08:32:34;;;;;;;0.00;0.00;;;16.30;99.90;;;;;;5124885;27;20087;-72
2023/09/15 08:35:00;;;;;;;0.40;0.35;;;17.10;99.90;;;;;;5119228;27;20047;-72
2023/09/15 08:37:25;;;;;;;3.00;0.22;;;17.70;1.00;;;;;;5120500;27;20485;-72
2023/09/15 08:39:51;;;;;;;0.60;0.40;;;18.40;99.90;;;;;;5117880;28;20032;-72
2023/09/15 08:42:25;;;;;;;0.32;0.30;;;18.80;99.90;;;;;;5119754;28;20046;-72
2023/09/15 08:44:52;;;;;;;0.82;0.15;;;19.10;99.90;;;;;;5123075;28;20043;-72
2023/09/15 08:47:19;;;;;;;0.63;0.50;;;19.30;99.90;;;;;;5118922;27;20080;-72
2023/09/15 08:49:46;;;;;;;0.43;0.43;;;20.30;99.90;;;;;;5119690;27;20044;-72
2023/09/15 08:52:15;;;;;;;1.65;0.65;;;20.30;99.90;;;;;;5119726;28;20044;-73
2023/09/15 08:54:41;;;;;;;0.47;0.13;;;21.20;99.90;;;;;;5120795;28;20032;-73
2023/09/15 08:57:06;;;;;;;1.15;0.73;;;21.40;99.90;;;;;;5115794;27;20078;-73
2023/09/15 08:59:33;;;;;;;0.30;0.20;;;21.70;99.90;;;;;;5120748;27;20047;-73
2023/09/15 09:02:00;;;;;;;0.47;0.40;;;20.90;99.90;;;;;;5117380;28;20058;-73
2023/09/15 09:04:26;;;;;;;0.47;0.20;;;21.40;99.90;;;;;;5120755;27;20078;-73
2023/09/15 09:06:52;;;;;;;0.10;0.10;;;21.60;99.90;;;;;;5123573;27;20042;-73
2023/09/15 09:09:18;;;;;;;0.10;0.10;;;22.10;99.90;;;;;;5120319;27;20046;-73
2023/09/15 09:11:45;;;;;;;0.40;0.15;;;21.20;99.90;;;;;;5129145;27;20400;-73
2023/09/15 09:14:12;;;;;;;0.10;0.10;;;21.50;99.90;;;;;;5116748;27;20047;-73
2023/09/15 09:16:42;;;;;;;0.28;0.20;;;21.00;99.90;;;;;;5124723;27;20044;-73
2023/09/15 09:19:08;;;;;;;0.45;0.45;;;21.50;99.90;;;;;;5127359;27;20035;-73
2023/09/15 09:21:34;;;;;;;0.40;0.35;;;21.50;99.90;;;;;;5128201;27;20112;-73
2023/09/15 09:24:00;;;;;;;6.68;0.85;;;22.50;99.90;;;;;;5128289;27;20537;-73
2023/09/15 09:26:26;;;;;;;0.77;0.38;;;22.10;99.90;;;;;;5124418;27;20031;-73
2023/09/15 09:28:54;;;;;;;0.03;0.03;;;22.20;99.90;;;;;;5125200;27;20531;-73
2023/09/15 09:31:21;;;;;;;0.38;0.13;;;22.30;99.90;;;;;;5127192;27;20043;-73
2023/09/15 09:33:48;;;;;;;0.75;0.63;;;22.50;99.90;;;;;;5121708;27;20047;-73
2023/09/15 09:36:15;;;;;;;0.10;0.10;;;23.10;99.90;;;;;;5122797;27;20036;-73
2023/09/15 09:38:43;;;;;;;0.38;0.38;;;22.20;99.90;;;;;;5128123;27;20043;-73
2023/09/15 09:41:13;;;;;;;1.17;0.38;;;21.60;99.90;;;;;;5128375;27;20043;-73
2023/09/15 09:43:39;;;;;;;0.57;0.28;;;21.70;99.90;;;;;;5122104;27;20160;-73
2023/09/15 09:46:06;;;;;;;0.15;0.15;;;21.70;99.90;;;;;;5128273;27;20050;-73
2023/09/15 09:48:37;;;;;;;0.20;0.10;;;21.10;99.90;;;;;;5126798;27;20053;-73
2023/09/15 09:51:04;;;;;;;0.10;0.10;;;21.60;99.90;;;;;;5123299;27;20051;-73
2023/09/15 09:53:33;;;;;;;1.13;0.32;;;22.10;99.90;;;;;;5126909;27;20043;-73
2023/09/15 09:56:06;;;;;;;1.45;0.35;;;22.20;99.90;;;;;;5118912;27;20424;-73
2023/09/15 09:58:33;;;;;;;0.00;0.00;;;22.10;99.90;;;;;;5124773;27;20385;-73
2023/09/15 10:00:59;;;;;;;0.55;0.30;;;21.70;99.90;;;;;;5116246;27;20396;-73
2023/09/15 10:03:25;;;;;;;1.48;0.65;;;21.20;90.70;;;;;;5123392;27;20043;-73
2023/09/15 10:05:52;;;;;;;0.60;0.60;;;20.90;78.20;;;;;;5117775;27;20031;-73
2023/09/15 10:08:18;;;;;;;0.10;0.10;;;20.60;76.20;;;;;;5124485;27;20107;-73
2023/09/15 10:10:46;;;;;;;0.32;0.28;;;20.80;84.40;;;;;;5124374;27;20043;-73
2023/09/15 10:13:13;;;;;;;0.47;0.47;;;20.80;83.30;;;;;;5119288;27;20035;-72
2023/09/15 10:15:41;;;;;;;0.20;0.15;;;21.10;99.50;;;;;;5127456;27;20064;-73
2023/09/15 10:18:08;;;;;;;0.50;0.30;;;21.10;92.50;;;;;;5125414;27;20032;-72
2023/09/15 10:20:39;;;;;;;1.50;0.57;;;20.40;52.50;;;;;;5124291;27;20036;-72
2023/09/15 10:23:06;;;;;;;0.55;0.40;;;20.90;60.60;;;;;;5131136;27;20554;-73
2023/09/15 10:25:49;;;;;;;0.63;0.43;;;21.40;93.30;;;;;;5124159;27;20039;-73
2023/09/15 10:28:17;;;;;;;0.65;0.35;;;21.50;88.30;;;;;;5125824;27;20156;-73
2023/09/15 10:30:43;;;;;;;0.45;0.30;;;21.80;99.00;;;;;;5127263;27;20481;-73
2023/09/15 10:33:10;;;;;;;0.05;0.05;;;22.00;99.90;;;;;;5117946;27;20043;-73
2023/09/15 10:35:45;;;;;;;0.25;0.20;;;22.50;99.90;;;;;;5127348;27;20122;-73
2023/09/15 10:38:11;;;;;;;0.88;0.65;;;22.50;99.90;;;;;;5127174;27;20039;-73
2023/09/15 10:40:47;;;;;;;0.10;0.10;;;22.10;79.20;;;;;;5123569;27;20122;-73
2023/09/15 10:43:17;;;;;;;1.05;0.77;;;22.00;90.30;;;;;;5127192;27;20096;-73
2023/09/15 10:46:02;;;;;;;0.98;0.60;;;22.00;70.80;;;;;;5115552;27;20039;-73
2023/09/15 10:48:43;;;;;;;5.43;0.95;;;21.30;25.10;;;;;;5124567;27;20051;-73
2023/09/15 10:51:10;;;;;;;0.45;0.30;;;21.70;61.30;;;;;;5125684;27;20047;-73
2023/09/15 10:53:46;;;;;;;1.25;0.65;;;22.10;70.10;;;;;;5125715;27;20061;-73
2023/09/15 10:56:13;;;;;;;2.60;0.90;;;22.30;75.90;;;;;;5123786;27;20553;-73
2023/09/15 10:58:40;;;;;;;0.20;0.20;;;22.90;99.90;;;;;;5123116;27;20040;-73
2023/09/15 11:01:06;;;;;;;2.53;0.70;;;22.80;90.60;;;;;;5126029;27;20039;-73
2023/09/15 11:03:33;;;;;;;12.57;0.98;;;23.10;83.20;;;;;;5126592;27;20039;-72
2023/09/15 11:06:01;;;;;;;0.50;0.38;;;22.80;63.20;;;;;;5123835;27;20044;-73
2023/09/15 11:08:27;;;;;;;0.10;0.10;;;23.10;72.30;;;;;;5123467;27;20040;-73
2023/09/15 11:10:59;;;;;;;0.17;0.15;;;22.80;63.70;;;;;;5121418;27;20508;-73
2023/09/15 11:13:25;;;;;;;0.63;0.55;;;22.90;50.70;;;;;;5126299;27;20088;-73
2023/09/15 11:15:51;;;;;;;2.05;0.25;;;23.30;62.60;;;;;;5125691;27;20481;-73
2023/09/15 11:18:18;;;;;;;0.47;0.30;;;23.20;67.20;;;;;;5123080;27;20028;-73
2023/09/15 11:20:44;;;;;;;4.88;0.63;;;22.90;38.80;;;;;;5122461;27;20044;-73
2023/09/15 11:23:10;;;;;;;0.30;0.20;;;23.80;76.90;;;;;;5124926;27;20036;-73
2023/09/15 11:25:36;;;;;;;1.00;0.40;;;23.70;70.60;;;;;;5125130;27;20072;-73
2023/09/15 11:28:01;;;;;;;1.08;0.57;;;23.10;29.50;;;;;;5125962;27;20086;-73
2023/09/15 11:30:29;;;;;;;0.30;0.20;;;22.70;9.60;;;;;;5117032;27;20058;-72
2023/09/15 11:32:57;;;;;;;0.20;0.20;;;22.60;1.00;;;;;;5126093;27;20039;-73
2023/09/15 11:35:24;;;;;;;0.30;0.20;;;22.50;1.00;;;;;;5124040;27;20035;-72
2023/09/15 11:37:52;;;;;;;1.65;0.93;;;22.70;1.00;;;;;;5122835;27;20035;-72
2023/09/15 11:40:24;;;;;;;0.73;0.20;;;23.10;11.60;;;;;;5129671;27;20051;-72
2023/09/15 11:42:55;;;;;;;0.10;0.10;;;23.40;23.60;;;;;;5122576;27;20408;-73
2023/09/15 11:45:25;;;;;;;0.15;0.08;;;23.40;12.70;;;;;;5121780;27;20216;-73
2023/09/15 11:47:51;;;;;;;0.73;0.50;;;23.40;18.10;;;;;;5121231;27;20528;-72
2023/09/15 11:50:17;;;;;;;0.98;0.65;;;23.60;9.40;;;;;;5122480;27;20161;-73
2023/09/15 11:52:43;;;;;;;2.05;0.30;;;23.60;9.00;;;;;;5124822;27;20079;-72
2023/09/15 11:55:20;;;;;;;0.15;0.10;;;23.70;1.00;;;;;;5125625;27;20493;-72
2023/09/15 11:57:46;;;;;;;0.65;0.57;;;23.70;1.00;;;;;;5116100;27;20141;-72
2023/09/15 12:00:17;;;;;;;0.10;0.10;;;23.80;1.00;;;;;;5125839;27;20042;-73
2023/09/15 12:02:45;;;;;;;0.88;0.63;;;24.40;28.90;;;;;;5124409;27;20043;-73
2023/09/15 12:05:11;;;;;;;0.47;0.35;;;24.50;1.00;;;;;;5121617;27;20664;-73
2023/09/15 12:07:38;;;;;;;0.28;0.20;;;24.20;1.00;;;;;;5122181;27;20063;-73
2023/09/15 12:10:05;;;;;;;0.77;0.55;;;24.40;1.00;;;;;;5125513;27;20056;-73
2023/09/15 12:12:31;;;;;;;3.25;1.08;;;25.00;12.30;;;;;;5124808;27;20072;-73
2023/09/15 12:15:01;;;;;;;0.10;0.10;;;24.00;1.00;;;;;;5123836;27;20514;-72
2023/09/15 12:17:28;;;;;;;0.00;0.00;;;23.10;1.00;;;;;;5116768;27;20032;-72
2023/09/15 12:20:00;;;;;;;0.00;0.00;;;22.70;1.00;;;;;;5122378;27;20027;-72
2023/09/15 12:22:33;;;;;;;0.13;0.13;;;22.50;1.00;;;;;;5125164;27;20042;-72
2023/09/15 12:25:00;;;;;;;0.30;0.25;;;23.00;1.00;;;;;;5124822;27;20122;-72
2023/09/15 12:27:29;;;;;;;0.25;0.13;;;23.90;1.00;;;;;;5121279;27;20384;-73
2023/09/15 12:30:03;;;;;;;1.13;0.63;;;24.70;1.00;;;;;;5121958;27;20117;-73
2023/09/15 12:32:31;;;;;;;1.13;0.67;;;25.50;29.30;;;;;;5113674;27;20568;-72
2023/09/15 12:34:57;;;;;;;6.85;0.52;;;25.30;1.00;;;;;;5121948;27;20443;-73
2023/09/15 12:37:26;;;;;;;1.45;0.45;;;26.00;27.60;;;;;;5112327;27;20047;-72
2023/09/15 12:39:52;;;;;;;0.38;0.20;;;25.80;1.00;;;;;;5121678;28;20044;-73
2023/09/15 12:42:18;;;;;;;0.60;0.60;;;25.40;1.00;;;;;;5122019;28;20068;-73
2023/09/15 12:44:43;;;;;;;0.30;0.28;;;25.60;1.00;;;;;;5124959;28;20492;-73
2023/09/15 12:47:09;;;;;;;0.05;0.05;;;25.40;1.00;;;;;;5123240;28;20042;-72
2023/09/15 12:49:35;;;;;;;0.80;0.40;;;24.30;1.00;;;;;;5121951;28;20043;-73
2023/09/15 12:52:01;;;;;;;0.22;0.13;;;24.40;1.00;;;;;;5123161;27;20055;-73